createdAt,value
2017-12-22T00:00:52.073Z,28.43
2017-12-22T00:03:23.196Z,18.77
2017-12-22T00:05:54.103Z,20.30
2017-12-22T00:08:24.610Z,25.10
2017-12-22T00:10:55.252Z,25.30
2017-12-22T00:13:26.314Z,23.90
2017-12-22T00:15:56.714Z,20.97
2017-12-22T00:18:27.413Z,23.00
2017-12-22T00:20:58.684Z,23.50
2017-12-22T00:23:30.715Z,23.23
2017-12-22T00:26:02.027Z,23.07
2017-12-22T00:28:33.000Z,20.60
2017-12-22T00:31:03.492Z,19.10
2017-12-22T00:33:34.150Z,26.90
2017-12-22T00:36:04.551Z,21.87
2017-12-22T00:38:35.078Z,23.60
2017-12-22T00:41:06.026Z,23.60
2017-12-22T00:43:36.544Z,24.20
2017-12-22T00:46:08.006Z,24.13
2017-12-22T00:48:38.621Z,22.57
2017-12-22T00:51:09.779Z,19.53
2017-12-22T00:53:40.297Z,25.63
2017-12-22T00:56:11.056Z,25.47
2017-12-22T00:58:41.535Z,24.93
2017-12-22T01:01:12.489Z,21.17
2017-12-22T01:03:43.001Z,20.80
2017-12-22T01:06:13.920Z,24.97
2017-12-22T01:08:45.247Z,18.40
2017-12-22T01:11:16.131Z,20.23
2017-12-22T01:13:47.521Z,25.17
2017-12-22T01:16:22.336Z,20.23
2017-12-22T01:19:24.468Z,24.13
2017-12-22T01:21:56.646Z,22.90
2017-12-22T01:24:27.352Z,36.37
2017-12-22T01:26:58.067Z,25.00
2017-12-22T01:29:29.475Z,24.47
2017-12-22T01:32:00.832Z,28.80
2017-12-22T01:34:31.533Z,30.37
2017-12-22T01:37:02.748Z,35.00
2017-12-22T01:39:34.199Z,32.10
2017-12-22T01:42:04.994Z,39.27
2017-12-22T01:44:35.664Z,32.23
2017-12-22T01:47:06.420Z,36.57
2017-12-22T01:49:37.151Z,26.80
2017-12-22T01:52:08.244Z,31.63
2017-12-22T01:54:39.021Z,34.33
2017-12-22T01:57:09.902Z,32.10
2017-12-22T01:59:40.515Z,29.00
2017-12-22T02:02:12.024Z,29.57
2017-12-22T02:04:42.981Z,36.07
2017-12-22T02:07:14.775Z,39.00
2017-12-22T02:09:45.287Z,31.30
2017-12-22T02:12:16.160Z,31.80
2017-12-22T02:14:46.764Z,34.90
2017-12-22T02:17:18.330Z,40.33
2017-12-22T02:19:48.815Z,29.03
2017-12-22T02:22:19.387Z,38.57
2017-12-22T02:24:50.384Z,34.50
2017-12-22T02:27:21.699Z,39.17
2017-12-22T02:29:52.368Z,34.17
2017-12-22T02:32:23.538Z,38.50
2017-12-22T02:34:54.469Z,34.80
2017-12-22T02:37:25.828Z,34.47
2017-12-22T02:39:56.308Z,34.07
2017-12-22T02:42:27.566Z,37.23
2017-12-22T02:44:59.094Z,35.50
2017-12-22T02:47:30.564Z,40.13
2017-12-22T02:50:00.920Z,38.33
2017-12-22T02:52:32.095Z,43.00
2017-12-22T02:55:02.474Z,39.37
2017-12-22T02:57:33.553Z,42.23
2017-12-22T03:00:04.050Z,38.37
2017-12-22T03:02:34.844Z,42.77
2017-12-22T03:05:05.358Z,34.93
2017-12-22T03:07:37.567Z,44.83
2017-12-22T03:10:08.023Z,39.90
2017-12-22T03:12:38.642Z,31.70
2017-12-22T03:15:09.104Z,33.43
2017-12-22T03:17:40.912Z,32.23
2017-12-22T03:20:12.315Z,30.43
2017-12-22T03:22:43.131Z,34.73
2017-12-22T03:25:13.788Z,30.90
2017-12-22T03:27:44.561Z,28.03
2017-12-22T03:30:15.077Z,37.03
2017-12-22T03:32:46.184Z,23.93
2017-12-22T03:35:16.595Z,29.00
2017-12-22T03:37:46.908Z,25.73
2017-12-22T03:40:17.560Z,24.03
2017-12-22T03:42:48.543Z,28.47
2017-12-22T03:45:19.165Z,21.17
2017-12-22T03:47:49.644Z,19.43
2017-12-22T03:50:20.099Z,23.40
2017-12-22T03:52:51.668Z,21.27
2017-12-22T03:55:22.901Z,26.40
2017-12-22T03:57:53.268Z,18.40
2017-12-22T04:00:24.640Z,26.20
2017-12-22T04:02:55.579Z,22.40
2017-12-22T04:05:26.003Z,22.70
2017-12-22T04:07:56.657Z,21.33
2017-12-22T04:10:27.261Z,30.97
2017-12-22T04:12:57.670Z,24.70
2017-12-22T04:15:29.556Z,28.03
2017-12-22T04:18:00.177Z,23.57
2017-12-22T04:20:30.605Z,22.60
2017-12-22T04:23:01.214Z,21.27
2017-12-22T04:25:31.889Z,23.40
2017-12-22T04:28:02.508Z,27.53
2017-12-22T04:30:32.955Z,29.23
2017-12-22T04:33:04.199Z,27.87
2017-12-22T04:35:35.064Z,26.27
2017-12-22T04:38:05.583Z,30.07
2017-12-22T04:40:35.770Z,26.60
2017-12-22T04:43:06.664Z,23.53
2017-12-22T04:45:38.208Z,25.07
2017-12-22T04:48:08.879Z,26.10
2017-12-22T04:50:39.781Z,24.87
2017-12-22T04:53:11.144Z,31.90
2017-12-22T04:55:41.587Z,26.17
2017-12-22T04:58:12.244Z,23.23
2017-12-22T05:00:43.048Z,24.30
2017-12-22T05:03:14.299Z,30.23
2017-12-22T05:05:44.977Z,28.50
2017-12-22T05:08:15.561Z,26.70
2017-12-22T05:13:21.100Z,26.23
2017-12-22T05:15:51.648Z,32.33
2017-12-22T05:18:22.115Z,29.97
2017-12-22T05:20:52.841Z,26.90
2017-12-22T05:23:24.044Z,24.83
2017-12-22T05:25:54.191Z,27.27
2017-12-22T05:28:25.328Z,24.93
2017-12-22T05:30:56.593Z,29.37
2017-12-22T05:33:27.180Z,26.30
2017-12-22T05:35:57.654Z,30.20
2017-12-22T05:38:27.819Z,36.43
2017-12-22T05:40:58.986Z,34.83
2017-12-22T05:43:29.671Z,37.50
2017-12-22T05:46:02.485Z,30.77
2017-12-22T05:48:41.861Z,42.17
2017-12-22T05:51:12.969Z,48.73
2017-12-22T05:53:43.180Z,46.73
2017-12-22T05:56:14.604Z,36.60
2017-12-22T05:58:44.774Z,41.40
2017-12-22T06:01:21.673Z,37.77
2017-12-22T06:03:53.089Z,34.87
2017-12-22T06:06:23.533Z,35.80
2017-12-22T06:08:53.690Z,26.73
2017-12-22T06:11:24.221Z,33.33
2017-12-22T06:13:55.273Z,32.90
2017-12-22T06:16:26.400Z,41.47
2017-12-22T06:18:56.758Z,31.70
2017-12-22T06:21:27.703Z,36.43
2017-12-22T06:23:58.486Z,36.10
2017-12-22T06:26:29.189Z,37.10
2017-12-22T06:29:01.678Z,35.07
2017-12-22T06:31:33.217Z,33.10
2017-12-22T06:34:04.041Z,31.37
2017-12-22T06:36:34.672Z,27.57
2017-12-22T06:39:05.844Z,36.60
2017-12-22T06:41:36.264Z,42.83
2017-12-22T06:44:06.791Z,23.90
2017-12-22T06:46:36.984Z,24.90
2017-12-22T06:49:07.317Z,42.37
2017-12-22T06:51:39.043Z,29.33
2017-12-22T06:54:09.529Z,40.80
2017-12-22T06:56:39.884Z,35.63
2017-12-22T06:59:10.488Z,32.90
2017-12-22T07:01:40.923Z,26.20
2017-12-22T07:04:11.341Z,29.57
2017-12-22T07:06:42.866Z,27.27
2017-12-22T07:09:19.231Z,33.07
2017-12-22T07:11:50.694Z,33.23
2017-12-22T07:14:21.401Z,25.83
2017-12-22T07:16:52.010Z,34.17
2017-12-22T07:19:22.592Z,38.00
2017-12-22T07:21:53.303Z,41.07
2017-12-22T07:24:23.539Z,27.77
2017-12-22T07:26:53.918Z,42.23
2017-12-22T07:29:25.294Z,33.87
2017-12-22T07:31:55.676Z,36.87
2017-12-22T07:34:25.977Z,34.70
2017-12-22T07:36:56.343Z,27.90
2017-12-22T07:39:27.476Z,34.57
2017-12-22T07:41:57.787Z,35.90
2017-12-22T07:44:28.458Z,31.57
2017-12-22T07:46:59.767Z,25.23
2017-12-22T07:49:30.160Z,40.90
2017-12-22T07:52:00.568Z,25.40
2017-12-22T07:54:31.387Z,24.77
2017-12-22T07:57:01.564Z,37.53
2017-12-22T07:59:37.319Z,30.93
2017-12-22T08:02:17.857Z,31.77
2017-12-22T08:04:50.334Z,25.80
2017-12-22T08:07:20.797Z,36.70
2017-12-22T08:09:51.589Z,35.00
2017-12-22T08:12:22.067Z,29.60
2017-12-22T08:14:52.826Z,22.77
2017-12-22T08:17:25.151Z,28.30
2017-12-22T08:19:55.664Z,34.83
2017-12-22T08:22:26.173Z,34.30
2017-12-22T08:24:56.431Z,35.80
2017-12-22T08:27:27.035Z,31.17
2017-12-22T08:29:57.673Z,27.23
2017-12-22T08:32:29.082Z,28.90
2017-12-22T08:34:59.470Z,34.33
2017-12-22T08:37:29.844Z,36.50
2017-12-22T08:40:00.436Z,34.47
2017-12-22T08:42:31.936Z,31.67
2017-12-22T08:45:02.256Z,24.60
2017-12-22T08:47:32.800Z,29.73
2017-12-22T08:50:03.893Z,29.40
2017-12-22T08:52:34.342Z,28.50
2017-12-22T08:55:05.115Z,28.67
2017-12-22T08:57:36.783Z,34.60
2017-12-22T09:00:07.421Z,28.37
2017-12-22T09:02:37.784Z,32.50
2017-12-22T09:05:08.302Z,21.00
2017-12-22T09:07:39.719Z,28.70
2017-12-22T09:10:10.099Z,31.80
2017-12-22T09:12:40.580Z,27.60
2017-12-22T09:15:12.035Z,31.93
2017-12-22T09:17:42.389Z,29.67
2017-12-22T09:20:12.745Z,28.93
2017-12-22T09:22:43.044Z,23.90
2017-12-22T09:25:13.406Z,26.00
2017-12-22T09:27:43.876Z,26.87
2017-12-22T09:30:14.567Z,28.23
2017-12-22T09:32:44.977Z,31.80
2017-12-22T09:35:15.227Z,29.40
2017-12-22T09:37:45.553Z,27.77
2017-12-22T09:40:16.028Z,34.20
2017-12-22T09:42:46.353Z,26.50
2017-12-22T09:45:16.990Z,26.90
2017-12-22T09:47:47.264Z,28.37
2017-12-22T09:50:18.418Z,30.93
2017-12-22T09:52:49.554Z,32.07
2017-12-22T09:55:20.568Z,34.60
2017-12-22T09:57:50.876Z,33.20
2017-12-22T10:00:21.100Z,34.03
2017-12-22T10:02:53.871Z,40.93
2017-12-22T10:05:24.793Z,37.17
2017-12-22T10:07:55.517Z,36.33
2017-12-22T10:10:25.696Z,42.70
2017-12-22T10:12:56.072Z,36.17
2017-12-22T10:15:26.370Z,35.27
2017-12-22T10:17:57.317Z,34.30
2017-12-22T10:20:28.536Z,39.83
2017-12-22T10:23:00.389Z,41.47
2017-12-22T10:25:30.961Z,34.13
2017-12-22T10:28:01.229Z,32.97
2017-12-22T10:30:31.565Z,34.57
2017-12-22T10:33:02.064Z,39.87
2017-12-22T10:35:32.437Z,33.23
2017-12-22T10:38:03.583Z,34.10
2017-12-22T10:40:34.643Z,34.90
2017-12-22T10:43:05.019Z,38.80
2017-12-22T10:45:35.622Z,32.60
2017-12-22T10:48:06.085Z,31.73
2017-12-22T10:50:36.656Z,31.70
2017-12-22T10:53:07.018Z,24.80
2017-12-22T10:55:37.436Z,26.87
2017-12-22T10:58:07.954Z,25.17
2017-12-22T11:00:38.459Z,30.80
2017-12-22T11:03:09.528Z,25.87
2017-12-22T11:05:40.186Z,31.03
2017-12-22T11:08:10.719Z,30.77
2017-12-22T11:10:42.008Z,30.60
2017-12-22T11:13:12.998Z,29.30
2017-12-22T11:15:43.603Z,33.17
2017-12-22T11:18:13.998Z,31.20
2017-12-22T11:20:45.604Z,31.27
2017-12-22T11:23:16.891Z,32.13
2017-12-22T11:25:48.773Z,24.13
2017-12-22T11:28:19.237Z,29.47
2017-12-22T11:30:49.709Z,24.30
2017-12-22T11:33:20.127Z,29.20
2017-12-22T11:35:50.731Z,23.23
2017-12-22T11:38:21.787Z,24.33
2017-12-22T11:40:52.183Z,28.33
2017-12-22T11:43:22.694Z,24.13
2017-12-22T11:45:53.648Z,21.60
2017-12-22T11:48:24.471Z,22.30
2017-12-22T11:50:55.022Z,21.57
2017-12-22T11:53:25.767Z,22.40
2017-12-22T11:55:57.740Z,15.63
2017-12-22T11:58:28.180Z,22.77
2017-12-22T12:00:58.792Z,24.40
2017-12-22T12:03:30.164Z,26.30
2017-12-22T12:06:01.524Z,21.13
2017-12-22T12:08:32.072Z,20.47
2017-12-22T12:11:02.712Z,19.07
2017-12-22T12:13:33.163Z,19.93
2017-12-22T12:16:03.648Z,21.90
2017-12-22T12:18:34.458Z,21.60
2017-12-22T12:21:07.031Z,18.63
2017-12-22T12:23:38.197Z,27.50
2017-12-22T12:26:08.645Z,26.07
2017-12-22T12:28:39.167Z,26.03
2017-12-22T12:31:09.566Z,24.77
2017-12-22T12:33:41.852Z,21.40
2017-12-22T12:36:12.409Z,24.07
2017-12-22T12:38:43.490Z,24.17
2017-12-22T12:41:14.280Z,19.00
2017-12-22T12:43:44.728Z,20.73
2017-12-22T12:46:15.147Z,19.80
2017-12-22T12:48:45.639Z,28.20
2017-12-22T12:51:15.952Z,15.90
2017-12-22T12:53:46.303Z,18.33
2017-12-22T12:56:16.949Z,22.40
2017-12-22T12:58:47.460Z,19.27
2017-12-22T13:01:18.114Z,16.17
2017-12-22T13:03:48.931Z,21.27
2017-12-22T13:06:20.430Z,17.60
2017-12-22T13:08:51.204Z,26.93
2017-12-22T13:11:21.943Z,18.07
2017-12-22T13:13:52.277Z,25.00
2017-12-22T13:16:23.504Z,18.13
2017-12-22T13:18:53.912Z,17.37
2017-12-22T13:21:24.339Z,20.23
2017-12-22T13:23:55.226Z,18.10
2017-12-22T13:26:26.748Z,19.53
2017-12-22T13:28:57.867Z,26.30
2017-12-22T13:31:29.459Z,20.77
2017-12-22T13:34:00.006Z,19.07
2017-12-22T13:36:30.241Z,15.03
2017-12-22T13:39:01.374Z,20.40
2017-12-22T13:41:31.776Z,23.63
2017-12-22T13:44:02.026Z,18.40
2017-12-22T13:46:32.411Z,18.17
2017-12-22T13:49:03.064Z,24.00
2017-12-22T13:51:33.432Z,20.13
2017-12-22T13:54:04.862Z,18.63
2017-12-22T13:56:36.179Z,17.50
2017-12-22T13:59:06.715Z,18.03
2017-12-22T14:01:37.134Z,19.87
2017-12-22T14:04:08.045Z,18.53
2017-12-22T14:06:38.731Z,17.83
2017-12-22T14:09:10.051Z,22.50
2017-12-22T14:11:40.738Z,15.33
2017-12-22T14:14:12.151Z,17.27
2017-12-22T14:16:42.824Z,10.17
2017-12-22T14:19:14.074Z,13.93
2017-12-22T14:21:45.971Z,15.70
2017-12-22T14:24:19.573Z,14.23
2017-12-22T14:26:51.391Z,16.50
2017-12-22T14:29:23.398Z,12.70
2017-12-22T14:31:55.193Z,14.53
2017-12-22T14:34:26.578Z,9.60
2017-12-22T14:36:56.906Z,11.70
2017-12-22T14:39:27.260Z,12.13
2017-12-22T14:41:57.737Z,15.10
2017-12-22T14:44:28.225Z,13.67
2017-12-22T14:46:58.847Z,10.50
2017-12-22T14:49:29.280Z,18.00
2017-12-22T14:51:59.724Z,19.43
2017-12-22T14:54:31.801Z,12.40
2017-12-22T14:57:02.390Z,13.90
2017-12-22T14:59:32.848Z,15.83
2017-12-22T15:02:04.235Z,12.23
2017-12-22T15:04:35.051Z,16.20
2017-12-22T15:07:06.497Z,14.73
2017-12-22T15:09:38.233Z,11.90
2017-12-22T15:12:09.601Z,11.50
2017-12-22T15:14:40.547Z,13.63
2017-12-22T15:17:11.169Z,11.40
2017-12-22T15:19:42.532Z,11.50
2017-12-22T15:22:12.941Z,13.17
2017-12-22T15:24:44.123Z,10.97
2017-12-22T15:27:15.118Z,8.53
2017-12-22T15:29:46.151Z,10.07
2017-12-22T15:32:17.434Z,17.73
2017-12-22T15:34:47.814Z,15.17
2017-12-22T15:37:19.888Z,14.83
2017-12-22T15:39:50.497Z,17.93
2017-12-22T15:42:21.121Z,11.80
2017-12-22T15:44:51.646Z,14.97
2017-12-22T15:47:22.057Z,15.77
2017-12-22T15:49:52.442Z,12.20
2017-12-22T15:52:23.103Z,15.00
2017-12-22T15:54:53.815Z,15.07
2017-12-22T15:57:24.646Z,17.70
2017-12-22T15:59:56.095Z,16.80
2017-12-22T16:02:27.500Z,16.37
2017-12-22T16:04:58.446Z,16.13
2017-12-22T16:07:28.796Z,18.87
2017-12-22T16:10:00.020Z,13.90
2017-12-22T16:12:30.669Z,15.07
2017-12-22T16:15:01.667Z,19.57
2017-12-22T16:17:32.575Z,15.60
2017-12-22T16:20:03.273Z,15.27
2017-12-22T16:22:34.254Z,16.73
2017-12-22T16:25:06.167Z,15.97
2017-12-22T16:27:37.631Z,15.07
2017-12-22T16:30:08.224Z,17.23
2017-12-22T16:32:38.771Z,19.27
2017-12-22T16:35:09.247Z,19.57
2017-12-22T16:37:39.635Z,16.60
2017-12-22T16:40:10.217Z,16.53
2017-12-22T16:42:40.695Z,18.27
2017-12-22T16:45:13.163Z,16.63
2017-12-22T16:47:44.278Z,17.97
2017-12-22T16:50:15.777Z,19.10
2017-12-22T16:52:46.360Z,15.03
2017-12-22T16:55:16.967Z,12.30
2017-12-22T16:57:47.230Z,17.20
2017-12-22T17:00:18.753Z,17.17
2017-12-22T17:02:49.056Z,17.13
2017-12-22T17:05:20.144Z,23.83
2017-12-22T17:07:52.448Z,19.33
2017-12-22T17:10:23.788Z,21.13
2017-12-22T17:12:55.219Z,17.20
2017-12-22T17:15:25.620Z,24.97
2017-12-22T17:17:56.520Z,26.30
2017-12-22T17:20:27.624Z,17.77
2017-12-22T17:22:58.112Z,23.77
2017-12-22T17:25:28.523Z,20.23
2017-12-22T17:27:59.672Z,18.33
2017-12-22T17:30:29.876Z,16.10
2017-12-22T17:33:00.135Z,16.73
2017-12-22T17:35:30.715Z,20.20
2017-12-22T17:38:01.868Z,15.90
2017-12-22T17:40:32.335Z,19.33
2017-12-22T17:43:02.824Z,21.20
2017-12-22T17:45:33.026Z,16.20
2017-12-22T17:48:03.453Z,20.03
2017-12-22T17:50:34.123Z,19.30
2017-12-22T17:53:04.738Z,19.70
2017-12-22T17:55:34.990Z,21.33
2017-12-22T17:58:05.534Z,23.70
2017-12-22T18:00:35.905Z,19.53
2017-12-22T18:03:06.273Z,24.30
2017-12-22T18:05:37.725Z,28.10
2017-12-22T18:08:08.173Z,23.20
2017-12-22T18:10:39.436Z,32.57
2017-12-22T18:13:11.155Z,23.77
2017-12-22T18:15:42.938Z,33.43
2017-12-22T18:18:14.308Z,33.17
2017-12-22T18:20:45.593Z,30.27
2017-12-22T18:23:17.957Z,31.33
2017-12-22T18:25:48.816Z,36.07
2017-12-22T18:28:21.679Z,32.60
2017-12-22T18:30:53.166Z,33.77
2017-12-22T18:33:23.800Z,34.53
2017-12-22T18:35:54.687Z,37.33
2017-12-22T18:38:25.137Z,25.97
2017-12-22T18:40:55.637Z,28.93
2017-12-22T18:43:26.167Z,31.60
2017-12-22T18:45:56.855Z,36.67
2017-12-22T18:48:27.309Z,36.40
2017-12-22T18:50:58.233Z,39.57
2017-12-22T18:53:29.030Z,25.13
2017-12-22T18:56:00.252Z,29.53
2017-12-22T18:58:30.677Z,41.27
2017-12-22T19:01:01.080Z,33.37
2017-12-22T19:03:32.446Z,42.60
2017-12-22T19:06:03.405Z,43.30
2017-12-22T19:08:34.353Z,31.27
2017-12-22T19:11:05.020Z,40.60
2017-12-22T19:13:35.448Z,40.17
2017-12-22T19:16:07.203Z,41.90
2017-12-22T19:18:37.604Z,40.43
2017-12-22T19:21:08.443Z,40.67
2017-12-22T19:23:39.395Z,39.70
2017-12-22T19:26:09.972Z,41.00
2017-12-22T19:28:40.231Z,41.00
2017-12-22T19:31:10.406Z,49.17
2017-12-22T19:33:40.783Z,36.23
2017-12-22T19:36:11.120Z,33.93
2017-12-22T19:38:41.556Z,32.33
2017-12-22T19:41:13.078Z,25.67
2017-12-22T19:43:43.419Z,29.60
2017-12-22T19:46:13.641Z,25.97
2017-12-22T19:48:44.121Z,29.50
2017-12-22T19:51:14.826Z,28.40
2017-12-22T19:53:45.387Z,25.23
2017-12-22T19:56:15.979Z,30.13
2017-12-22T19:58:47.280Z,35.23
2017-12-22T20:01:17.990Z,25.00
2017-12-22T20:03:49.027Z,35.87
2017-12-22T20:06:19.335Z,31.03
2017-12-22T20:08:49.840Z,33.77
2017-12-22T20:11:20.135Z,31.13
2017-12-22T20:13:50.615Z,29.50
2017-12-22T20:16:21.138Z,32.33
2017-12-22T20:18:51.437Z,36.77
2017-12-22T20:21:21.804Z,37.03
2017-12-22T20:23:52.492Z,28.60
2017-12-22T20:26:23.377Z,31.10
2017-12-22T20:28:54.380Z,30.10
2017-12-22T20:31:25.753Z,30.70
2017-12-22T20:33:56.108Z,35.50
2017-12-22T20:36:26.991Z,36.47
2017-12-22T20:38:57.305Z,30.17
2017-12-22T20:41:27.504Z,36.53
2017-12-22T20:43:57.839Z,41.33
2017-12-22T20:46:28.603Z,36.63
2017-12-22T20:49:00.667Z,41.17
2017-12-22T20:51:32.122Z,35.97
2017-12-22T20:54:02.724Z,34.73
2017-12-22T20:56:33.378Z,31.43
2017-12-22T20:59:03.946Z,34.20
2017-12-22T21:01:34.230Z,39.77
2017-12-22T21:04:05.305Z,35.03
2017-12-22T21:06:35.831Z,28.60
2017-12-22T21:09:06.445Z,29.93
2017-12-22T21:11:37.531Z,33.83
2017-12-22T21:14:08.114Z,30.07
2017-12-22T21:16:39.260Z,24.70
2017-12-22T21:19:09.693Z,32.97
2017-12-22T21:21:40.885Z,31.73
2017-12-22T21:24:12.904Z,29.47
2017-12-22T21:26:43.631Z,30.40
2017-12-22T21:29:15.004Z,40.37
2017-12-22T21:31:45.483Z,30.37
2017-12-22T21:34:16.683Z,21.63
2017-12-22T21:36:47.324Z,33.03
2017-12-22T21:39:17.741Z,25.07
2017-12-22T21:41:48.096Z,24.50
2017-12-22T21:44:18.921Z,31.40
2017-12-22T21:46:51.194Z,27.80
2017-12-22T21:49:22.087Z,29.00
2017-12-22T21:51:52.532Z,30.23
2017-12-22T21:54:23.186Z,34.13
2017-12-22T21:56:53.690Z,29.93
2017-12-22T21:59:24.184Z,33.93
2017-12-22T22:01:54.730Z,30.77
2017-12-22T22:04:25.814Z,31.20
2017-12-22T22:06:56.217Z,29.93
2017-12-22T22:09:26.837Z,37.30
2017-12-22T22:11:59.093Z,29.10
2017-12-22T22:14:29.410Z,28.53
2017-12-22T22:16:59.871Z,28.63
2017-12-22T22:19:30.660Z,26.73
2017-12-22T22:22:01.139Z,31.13
2017-12-22T22:24:31.818Z,29.57
2017-12-22T22:27:02.835Z,31.03
2017-12-22T22:29:33.255Z,25.00
2017-12-22T22:32:03.726Z,30.40
2017-12-22T22:34:34.247Z,25.63
2017-12-22T22:37:04.703Z,25.03
2017-12-22T22:39:34.914Z,28.83
2017-12-22T22:42:05.339Z,24.27
2017-12-22T22:44:35.701Z,26.90
2017-12-22T22:47:06.818Z,28.40
2017-12-22T22:49:37.748Z,31.70
2017-12-22T22:52:08.219Z,28.50
2017-12-22T22:54:39.380Z,28.37
2017-12-22T22:57:10.492Z,41.90
2017-12-22T22:59:41.244Z,30.60
2017-12-22T23:02:12.421Z,34.33
2017-12-22T23:04:42.689Z,35.43
2017-12-22T23:07:13.387Z,39.67
2017-12-22T23:09:43.705Z,43.20
2017-12-22T23:12:14.039Z,34.83
2017-12-22T23:14:44.858Z,35.10
2017-12-22T23:17:15.499Z,46.10
2017-12-22T23:19:46.091Z,47.40
2017-12-22T23:22:16.458Z,37.73
2017-12-22T23:24:46.807Z,42.30
2017-12-22T23:27:17.659Z,40.53
2017-12-22T23:29:47.975Z,35.47
2017-12-22T23:32:19.918Z,46.03
2017-12-22T23:34:50.732Z,50.30
2017-12-22T23:37:21.339Z,45.03
2017-12-22T23:39:51.589Z,55.20
2017-12-22T23:42:22.100Z,44.50
2017-12-22T23:44:52.887Z,48.77
2017-12-22T23:47:23.194Z,42.90
2017-12-22T23:49:53.551Z,46.20
2017-12-22T23:52:23.872Z,59.10
2017-12-22T23:54:55.381Z,51.17
2017-12-22T23:57:25.881Z,45.20
2017-12-22T23:59:56.287Z,46.90
